createdAt,value
2023-07-31T00:02:06.736Z,2.65
2023-07-31T00:04:34.715Z,2.92
2023-07-31T00:07:05.478Z,3.02
2023-07-31T00:09:34.396Z,2.88
2023-07-31T00:12:02.445Z,2.88
2023-07-31T00:14:30.411Z,3.15
2023-07-31T00:16:58.395Z,2.99
2023-07-31T00:19:26.381Z,2.83
2023-07-31T00:21:54.489Z,2.82
2023-07-31T00:24:22.505Z,2.85
2023-07-31T00:26:50.487Z,3.01
2023-07-31T00:29:18.543Z,2.77
2023-07-31T00:31:46.666Z,3.04
2023-07-31T00:34:14.721Z,3.01
2023-07-31T00:36:42.640Z,2.84
2023-07-31T00:39:10.819Z,2.72
2023-07-31T00:41:38.740Z,3.03
2023-07-31T00:44:06.618Z,2.85
2023-07-31T00:46:35.282Z,2.90
2023-07-31T00:49:04.514Z,3.00
2023-07-31T00:51:32.718Z,3.07
2023-07-31T00:54:00.765Z,2.96
2023-07-31T00:56:29.194Z,2.96
2023-07-31T00:58:57.155Z,3.12
2023-07-31T01:01:25.295Z,2.90
2023-07-31T01:03:54.934Z,3.21
2023-07-31T01:06:34.819Z,3.10
2023-07-31T01:09:05.083Z,3.00
2023-07-31T01:11:35.836Z,3.01
2023-07-31T01:14:03.821Z,2.96
2023-07-31T01:16:32.076Z,2.85
2023-07-31T01:19:00.279Z,2.82
2023-07-31T01:21:36.256Z,2.50
2023-07-31T01:24:29.210Z,2.54
2023-07-31T01:27:18.444Z,2.45
2023-07-31T01:30:15.925Z,2.58
2023-07-31T01:32:44.993Z,2.43
2023-07-31T01:35:13.094Z,2.45
2023-07-31T01:37:41.195Z,2.59
2023-07-31T01:40:09.925Z,2.72
2023-07-31T01:42:38.109Z,2.44
2023-07-31T01:45:06.851Z,2.51
2023-07-31T01:47:34.914Z,2.37
2023-07-31T01:50:02.929Z,2.52
2023-07-31T01:52:31.267Z,2.43
2023-07-31T01:54:59.299Z,2.38
2023-07-31T01:57:27.457Z,2.45
2023-07-31T01:59:55.494Z,2.31
2023-07-31T02:02:24.345Z,2.52
2023-07-31T02:04:53.519Z,2.45
2023-07-31T02:07:21.647Z,2.40
2023-07-31T02:09:49.631Z,2.23
2023-07-31T02:12:18.212Z,2.31
2023-07-31T02:14:46.382Z,2.35
2023-07-31T02:17:14.399Z,2.41
2023-07-31T02:19:43.478Z,2.10
2023-07-31T02:22:11.673Z,2.40
2023-07-31T02:24:39.686Z,2.45
2023-07-31T02:27:07.853Z,2.32
2023-07-31T02:29:35.903Z,2.05
2023-07-31T02:32:04.395Z,2.10
2023-07-31T02:34:32.452Z,2.29
2023-07-31T02:37:00.555Z,2.37
2023-07-31T02:39:28.568Z,2.19
2023-07-31T02:41:56.720Z,2.15
2023-07-31T02:44:25.394Z,2.35
2023-07-31T02:46:53.345Z,2.29
2023-07-31T02:49:21.234Z,2.22
2023-07-31T02:51:49.203Z,2.35
2023-07-31T02:54:17.183Z,2.29
2023-07-31T02:56:45.159Z,2.13
2023-07-31T02:59:13.415Z,2.13
2023-07-31T03:01:41.523Z,2.12
2023-07-31T03:04:09.595Z,2.13
2023-07-31T03:06:38.221Z,2.36
2023-07-31T03:09:06.410Z,2.16
2023-07-31T03:11:34.463Z,2.05
2023-07-31T03:14:02.408Z,2.13
2023-07-31T03:16:30.324Z,2.07
2023-07-31T03:18:58.275Z,2.11
2023-07-31T03:21:26.289Z,2.26
2023-07-31T03:23:54.510Z,2.51
2023-07-31T03:26:22.629Z,2.31
2023-07-31T03:28:50.856Z,2.03
2023-07-31T03:31:18.909Z,2.05
2023-07-31T03:33:46.982Z,2.21
2023-07-31T03:36:15.016Z,2.27
2023-07-31T03:38:44.524Z,2.35
2023-07-31T03:41:12.648Z,2.09
2023-07-31T03:43:40.729Z,2.31
2023-07-31T03:46:09.577Z,2.40
2023-07-31T03:48:38.052Z,2.28
2023-07-31T03:51:06.036Z,2.10
2023-07-31T03:53:33.978Z,2.13
2023-07-31T03:56:02.034Z,2.22
2023-07-31T03:58:29.941Z,2.03
2023-07-31T04:00:57.922Z,1.95
2023-07-31T04:03:25.973Z,2.06
2023-07-31T04:05:55.591Z,2.20
2023-07-31T04:08:24.087Z,2.15
2023-07-31T04:10:52.197Z,2.11
2023-07-31T04:13:20.739Z,2.03
2023-07-31T04:15:52.112Z,2.08
2023-07-31T04:18:20.080Z,2.23
2023-07-31T04:20:48.023Z,2.05
2023-07-31T04:23:16.032Z,2.02
2023-07-31T04:25:43.980Z,2.16
2023-07-31T04:28:12.108Z,2.16
2023-07-31T04:30:41.203Z,2.21
2023-07-31T04:33:09.282Z,2.19
2023-07-31T04:35:37.322Z,2.11
2023-07-31T04:38:05.345Z,2.03
2023-07-31T04:40:33.357Z,2.19
2023-07-31T04:43:01.386Z,2.13
2023-07-31T04:45:29.344Z,2.12
2023-07-31T04:47:57.379Z,2.26
2023-07-31T04:50:25.536Z,2.09
2023-07-31T04:52:53.614Z,2.12
2023-07-31T04:55:21.516Z,2.17
2023-07-31T04:57:49.518Z,2.18
2023-07-31T05:00:18.001Z,2.04
2023-07-31T05:02:46.181Z,1.94
2023-07-31T05:05:14.428Z,2.02
2023-07-31T05:07:42.416Z,2.03
2023-07-31T05:10:10.440Z,2.11
2023-07-31T05:12:38.520Z,2.03
2023-07-31T05:15:07.031Z,2.20
2023-07-31T05:17:35.083Z,2.21
2023-07-31T05:20:03.772Z,2.30
2023-07-31T05:22:31.982Z,2.36
2023-07-31T05:25:00.166Z,2.23
2023-07-31T05:27:28.193Z,2.14
2023-07-31T05:29:56.189Z,2.06
2023-07-31T05:32:24.361Z,2.26
2023-07-31T05:34:53.655Z,2.19
2023-07-31T05:37:21.605Z,2.30
2023-07-31T05:39:49.559Z,2.15
2023-07-31T05:42:17.593Z,2.08
2023-07-31T05:44:45.594Z,2.17
2023-07-31T05:47:13.541Z,2.11
2023-07-31T05:49:41.870Z,2.14
2023-07-31T05:52:09.858Z,2.17
2023-07-31T05:54:37.875Z,2.21
2023-07-31T05:57:06.236Z,2.26
2023-07-31T05:59:34.332Z,2.34
2023-07-31T06:02:02.501Z,2.14
2023-07-31T06:04:30.633Z,2.04
2023-07-31T06:06:58.784Z,2.02
2023-07-31T06:09:27.053Z,2.08
2023-07-31T06:11:55.061Z,2.13
2023-07-31T06:14:23.031Z,2.33
2023-07-31T06:16:51.136Z,2.31
2023-07-31T06:19:19.140Z,2.37
2023-07-31T06:21:47.302Z,2.54
2023-07-31T06:24:20.088Z,2.42
2023-07-31T06:26:48.296Z,2.34
2023-07-31T06:29:16.288Z,2.21
2023-07-31T06:31:44.643Z,2.58
2023-07-31T06:34:12.799Z,2.52
2023-07-31T06:36:41.205Z,2.54
2023-07-31T06:39:10.191Z,2.44
2023-07-31T06:41:39.387Z,2.52
2023-07-31T06:44:07.702Z,2.56
2023-07-31T06:46:35.761Z,2.69
2023-07-31T06:49:03.688Z,2.56
2023-07-31T06:51:32.670Z,2.65
2023-07-31T06:54:00.730Z,2.44
2023-07-31T06:56:29.172Z,2.56
2023-07-31T06:58:57.404Z,2.53
2023-07-31T07:01:25.737Z,2.38
2023-07-31T07:03:54.484Z,2.43
2023-07-31T07:06:23.823Z,2.25
2023-07-31T07:08:51.970Z,2.49
2023-07-31T07:11:20.244Z,2.51
2023-07-31T07:13:48.415Z,2.41
2023-07-31T07:16:16.600Z,2.62
2023-07-31T07:18:58.378Z,2.58
2023-07-31T07:21:30.965Z,2.51
2023-07-31T07:23:58.974Z,2.31
2023-07-31T07:26:27.461Z,2.35
2023-07-31T07:28:55.650Z,2.36
2023-07-31T07:31:23.711Z,2.66
2023-07-31T07:33:52.032Z,2.54
2023-07-31T07:36:20.264Z,2.66
2023-07-31T07:38:48.325Z,2.68
2023-07-31T07:41:16.458Z,2.64
2023-07-31T07:43:44.689Z,2.68
2023-07-31T07:46:13.024Z,2.72
2023-07-31T07:48:41.105Z,2.58
2023-07-31T07:51:09.196Z,2.65
2023-07-31T07:53:37.234Z,2.68
2023-07-31T07:56:05.366Z,2.81
2023-07-31T07:58:33.419Z,2.69
2023-07-31T08:01:01.440Z,2.87
2023-07-31T08:03:29.607Z,3.01
2023-07-31T08:06:01.264Z,2.63
2023-07-31T08:08:29.472Z,2.75
2023-07-31T08:10:57.509Z,2.83
2023-07-31T08:13:25.705Z,2.84
2023-07-31T08:15:53.748Z,2.98
2023-07-31T08:18:21.757Z,2.88
2023-07-31T08:20:50.393Z,2.89
2023-07-31T08:23:18.599Z,3.03
2023-07-31T08:25:46.640Z,3.03
2023-07-31T08:28:14.622Z,2.97
2023-07-31T08:30:43.278Z,2.97
2023-07-31T08:33:11.329Z,3.05
2023-07-31T08:35:39.652Z,3.29
2023-07-31T08:38:07.608Z,3.23
2023-07-31T08:40:41.658Z,3.01
2023-07-31T08:43:09.956Z,3.23
2023-07-31T08:45:38.298Z,3.57
2023-07-31T08:48:06.461Z,3.36
2023-07-31T08:50:34.458Z,4.19
2023-07-31T08:53:02.368Z,3.34
2023-07-31T08:55:32.437Z,3.24
2023-07-31T08:58:00.460Z,3.40
2023-07-31T09:00:28.585Z,3.35
2023-07-31T09:03:04.411Z,3.56
2023-07-31T09:05:32.732Z,3.37
2023-07-31T09:08:01.017Z,3.17
2023-07-31T09:10:29.043Z,3.19
2023-07-31T09:12:56.967Z,3.24
2023-07-31T09:15:36.893Z,3.25
2023-07-31T09:18:07.371Z,2.95
2023-07-31T09:20:35.872Z,2.94
2023-07-31T09:23:23.013Z,3.18
2023-07-31T09:25:51.077Z,3.08
2023-07-31T09:28:19.212Z,3.22
2023-07-31T09:30:51.256Z,2.46
2023-07-31T09:33:19.826Z,2.17
2023-07-31T09:35:49.455Z,2.63
2023-07-31T09:38:17.908Z,2.52
2023-07-31T09:40:47.450Z,2.27
2023-07-31T09:43:22.061Z,2.55
2023-07-31T09:45:57.566Z,2.47
2023-07-31T09:48:28.601Z,2.24
2023-07-31T09:50:56.785Z,2.27
2023-07-31T09:53:31.647Z,2.16
2023-07-31T09:56:01.520Z,2.17
2023-07-31T09:58:30.104Z,2.00
2023-07-31T10:01:00.638Z,2.23
2023-07-31T10:03:28.817Z,2.19
2023-07-31T10:05:57.174Z,2.18
2023-07-31T10:08:31.081Z,2.38
2023-07-31T10:10:59.777Z,1.93
2023-07-31T10:13:28.718Z,1.84
2023-07-31T10:15:59.646Z,2.11
2023-07-31T10:18:27.778Z,2.07
2023-07-31T10:20:56.391Z,2.18
2023-07-31T10:23:26.098Z,2.22
2023-07-31T10:25:55.496Z,2.38
2023-07-31T10:28:23.607Z,2.18
2023-07-31T10:30:51.863Z,2.26
2023-07-31T10:33:21.477Z,2.28
2023-07-31T10:35:49.829Z,2.26
2023-07-31T10:38:17.881Z,2.14
2023-07-31T10:40:47.051Z,2.40
2023-07-31T10:43:28.510Z,2.12
2023-07-31T10:45:56.708Z,2.17
2023-07-31T10:48:25.413Z,2.23
2023-07-31T10:50:57.160Z,2.03
2023-07-31T10:53:32.541Z,2.13
2023-07-31T10:56:07.605Z,2.05
2023-07-31T10:58:36.304Z,2.25
2023-07-31T11:01:05.426Z,2.24
2023-07-31T11:03:50.438Z,2.04
2023-07-31T11:06:19.836Z,2.12
2023-07-31T11:08:51.910Z,2.28
2023-07-31T11:11:21.122Z,2.49
2023-07-31T11:13:55.932Z,2.32
2023-07-31T11:16:25.270Z,2.10
2023-07-31T11:18:55.345Z,2.13
2023-07-31T11:21:25.028Z,2.17
2023-07-31T11:24:02.324Z,2.17
2023-07-31T11:26:32.014Z,2.28
2023-07-31T11:29:00.099Z,2.23
2023-07-31T11:31:28.225Z,2.30
2023-07-31T11:34:06.789Z,2.23
2023-07-31T11:36:35.185Z,2.71
2023-07-31T11:39:07.678Z,2.47
2023-07-31T11:41:35.748Z,2.53
2023-07-31T11:44:17.249Z,2.48
2023-07-31T11:46:52.220Z,2.31
2023-07-31T11:49:20.360Z,2.47
2023-07-31T11:51:48.690Z,2.19
2023-07-31T11:54:16.760Z,2.04
2023-07-31T11:56:44.953Z,2.29
2023-07-31T11:59:14.047Z,2.01
2023-07-31T12:01:42.194Z,2.08
2023-07-31T12:04:10.234Z,2.15
2023-07-31T12:06:38.903Z,2.32
2023-07-31T12:09:07.426Z,2.23
2023-07-31T12:11:48.288Z,2.46
2023-07-31T12:14:26.194Z,2.31
2023-07-31T12:16:55.981Z,2.34
2023-07-31T12:19:24.411Z,2.22
2023-07-31T12:21:52.361Z,2.56
2023-07-31T12:24:20.524Z,2.52
2023-07-31T12:26:49.456Z,2.37
2023-07-31T12:29:17.473Z,2.46
2023-07-31T12:31:45.522Z,2.55
2023-07-31T12:34:20.169Z,2.55
2023-07-31T12:36:50.280Z,2.42
2023-07-31T12:39:18.620Z,2.73
2023-07-31T12:41:46.671Z,2.54
2023-07-31T12:44:14.712Z,2.69
2023-07-31T12:46:43.294Z,2.06
2023-07-31T12:49:11.593Z,2.37
2023-07-31T12:51:40.155Z,2.43
2023-07-31T12:54:08.557Z,2.60
2023-07-31T12:56:36.745Z,2.53
2023-07-31T12:59:04.854Z,2.59
2023-07-31T13:01:33.019Z,2.47
2023-07-31T13:04:01.249Z,2.08
2023-07-31T13:06:29.548Z,2.79
2023-07-31T13:08:57.608Z,3.66
2023-07-31T13:11:27.976Z,3.73
2023-07-31T13:13:56.066Z,3.13
2023-07-31T13:16:24.018Z,2.99
2023-07-31T13:18:53.037Z,2.72
2023-07-31T13:21:22.796Z,2.83
2023-07-31T13:23:50.849Z,2.72
2023-07-31T13:26:18.827Z,2.69
2023-07-31T13:28:47.058Z,2.83
2023-07-31T13:31:15.356Z,3.02
2023-07-31T13:33:44.592Z,2.82
2023-07-31T13:36:15.279Z,2.81
2023-07-31T13:38:43.485Z,2.80
2023-07-31T13:41:11.542Z,2.51
2023-07-31T13:43:39.918Z,2.63
2023-07-31T13:46:08.755Z,2.59
2023-07-31T13:48:37.341Z,2.42
2023-07-31T13:51:05.656Z,2.54
2023-07-31T13:53:33.685Z,2.52
2023-07-31T13:56:02.073Z,2.35
2023-07-31T13:58:30.068Z,2.32
2023-07-31T14:00:58.100Z,2.34
2023-07-31T14:03:26.164Z,2.32
2023-07-31T14:05:54.605Z,2.39
2023-07-31T14:08:22.982Z,2.31
2023-07-31T14:10:50.988Z,2.69
2023-07-31T14:13:19.220Z,2.66
2023-07-31T14:15:47.347Z,2.56
2023-07-31T14:18:15.491Z,2.62
2023-07-31T14:20:43.704Z,2.59
2023-07-31T14:23:12.426Z,2.56
2023-07-31T14:25:40.472Z,2.74
2023-07-31T14:28:08.585Z,3.06
2023-07-31T14:30:36.613Z,3.05
2023-07-31T14:33:04.889Z,2.79
2023-07-31T14:35:32.982Z,2.96
2023-07-31T14:38:00.909Z,2.99
2023-07-31T14:40:29.086Z,3.03
2023-07-31T14:42:57.088Z,3.26
2023-07-31T14:45:25.154Z,3.25
2023-07-31T14:47:55.547Z,3.24
2023-07-31T14:50:24.419Z,3.05
2023-07-31T14:52:52.550Z,3.14
2023-07-31T14:55:20.725Z,3.19
2023-07-31T14:57:49.019Z,2.90
2023-07-31T15:00:17.292Z,3.21
2023-07-31T15:02:46.502Z,3.39
2023-07-31T15:05:14.803Z,3.16
2023-07-31T15:07:43.050Z,3.23
2023-07-31T15:10:11.063Z,3.33
2023-07-31T15:12:41.473Z,3.42
2023-07-31T15:15:09.817Z,3.35
2023-07-31T15:17:38.031Z,3.04
2023-07-31T15:20:07.110Z,3.10
2023-07-31T15:22:35.098Z,3.24
2023-07-31T15:25:03.083Z,3.07
2023-07-31T15:27:30.980Z,3.11
2023-07-31T15:29:59.126Z,3.39
2023-07-31T15:32:27.109Z,3.29
2023-07-31T15:34:55.197Z,3.12
2023-07-31T15:37:23.355Z,3.25
2023-07-31T15:39:51.345Z,3.27
2023-07-31T15:42:19.339Z,3.46
2023-07-31T15:44:47.464Z,3.38
2023-07-31T15:47:15.577Z,3.35
2023-07-31T15:49:43.636Z,3.39
2023-07-31T15:52:11.825Z,3.89
2023-07-31T15:54:39.839Z,3.44
2023-07-31T15:57:08.081Z,3.82
2023-07-31T15:59:36.062Z,3.63
2023-07-31T16:02:04.293Z,3.74
2023-07-31T16:04:32.471Z,4.19
2023-07-31T16:07:00.662Z,3.96
2023-07-31T16:09:28.955Z,3.81
2023-07-31T16:12:00.016Z,3.73
2023-07-31T16:14:28.616Z,3.81
2023-07-31T16:16:56.735Z,3.63
2023-07-31T16:19:27.138Z,3.71
2023-07-31T16:21:55.205Z,3.95
2023-07-31T16:24:23.355Z,3.79
2023-07-31T16:26:51.502Z,4.06
2023-07-31T16:29:19.622Z,4.09
2023-07-31T16:31:57.523Z,4.02
2023-07-31T16:34:27.802Z,4.03
2023-07-31T16:36:57.122Z,4.26
2023-07-31T16:39:25.689Z,3.87
2023-07-31T16:41:54.993Z,3.96
2023-07-31T16:44:23.083Z,3.86
2023-07-31T16:46:51.217Z,4.03
2023-07-31T16:49:23.313Z,3.98
2023-07-31T16:51:51.495Z,4.11
2023-07-31T16:54:19.568Z,3.87
2023-07-31T16:56:59.563Z,3.67
2023-07-31T16:59:31.225Z,3.98
2023-07-31T17:02:00.545Z,3.78
2023-07-31T17:04:32.287Z,3.93
2023-07-31T17:07:02.881Z,3.92
2023-07-31T17:09:35.430Z,4.06
2023-07-31T17:12:04.330Z,4.10
2023-07-31T17:14:35.336Z,4.06
2023-07-31T17:17:05.825Z,3.75
2023-07-31T17:19:36.642Z,3.69
2023-07-31T17:22:04.875Z,3.99
2023-07-31T17:24:35.587Z,4.24
2023-07-31T17:27:06.444Z,3.81
2023-07-31T17:29:36.921Z,3.58
2023-07-31T17:34:42.747Z,3.67
2023-07-31T17:37:10.774Z,3.80
2023-07-31T17:39:41.347Z,4.00
2023-07-31T17:42:18.927Z,3.83
2023-07-31T17:44:57.101Z,3.96
2023-07-31T17:47:25.156Z,3.89
2023-07-31T17:49:55.632Z,3.75
2023-07-31T17:52:23.901Z,3.84
2023-07-31T17:54:55.343Z,3.81
2023-07-31T17:57:24.152Z,3.96
2023-07-31T17:59:53.640Z,3.99
2023-07-31T18:02:21.991Z,4.00
2023-07-31T18:04:50.100Z,4.48
2023-07-31T18:07:18.128Z,4.14
2023-07-31T18:09:46.361Z,4.44
2023-07-31T18:12:14.499Z,4.70
2023-07-31T18:14:42.632Z,4.55
2023-07-31T18:17:12.655Z,4.86
2023-07-31T18:19:40.734Z,4.94
2023-07-31T18:22:08.905Z,5.00
2023-07-31T18:24:36.992Z,5.17
2023-07-31T18:27:05.382Z,5.17
2023-07-31T18:29:33.474Z,5.71
2023-07-31T18:32:01.472Z,5.66
2023-07-31T18:34:31.097Z,5.83
2023-07-31T18:36:59.053Z,5.78
2023-07-31T18:39:27.100Z,6.01
2023-07-31T18:41:55.256Z,5.99
2023-07-31T18:44:23.164Z,5.75
2023-07-31T18:46:51.220Z,5.81
2023-07-31T18:49:19.278Z,5.11
2023-07-31T18:51:48.573Z,5.20
2023-07-31T18:54:16.614Z,5.08
2023-07-31T18:56:44.715Z,5.11
2023-07-31T18:59:15.276Z,5.01
2023-07-31T19:01:45.448Z,5.10
2023-07-31T19:04:13.498Z,4.90
2023-07-31T19:06:41.918Z,4.72
2023-07-31T19:09:13.712Z,4.67
2023-07-31T19:11:42.976Z,4.88
2023-07-31T19:14:11.022Z,4.98
2023-07-31T19:16:39.332Z,4.78
2023-07-31T19:19:07.704Z,4.71
2023-07-31T19:21:35.749Z,5.02
2023-07-31T19:24:04.006Z,5.04
2023-07-31T19:26:32.250Z,4.67
2023-07-31T19:29:00.433Z,4.87
2023-07-31T19:31:28.533Z,4.74
2023-07-31T19:33:56.552Z,4.57
2023-07-31T19:36:24.690Z,4.82
2023-07-31T19:38:52.823Z,4.42
2023-07-31T19:41:21.055Z,4.83
2023-07-31T19:43:49.286Z,5.10
2023-07-31T19:46:17.580Z,4.37
2023-07-31T19:48:45.713Z,4.46
2023-07-31T19:51:13.940Z,4.47
2023-07-31T19:53:41.859Z,4.65
2023-07-31T19:56:09.827Z,4.55
2023-07-31T19:58:38.027Z,4.57
2023-07-31T20:01:06.063Z,4.73
2023-07-31T20:03:34.165Z,4.62
2023-07-31T20:06:02.290Z,4.83
2023-07-31T20:08:30.313Z,4.35
2023-07-31T20:11:00.947Z,4.24
2023-07-31T20:13:30.130Z,4.04
2023-07-31T20:15:58.477Z,4.15
2023-07-31T20:18:26.659Z,3.97
2023-07-31T20:20:55.133Z,4.06
2023-07-31T20:23:32.765Z,3.72
2023-07-31T20:26:10.443Z,3.91
2023-07-31T20:28:39.178Z,4.19
2023-07-31T20:31:07.276Z,4.00
2023-07-31T20:33:35.219Z,4.04
2023-07-31T20:36:05.762Z,4.46
2023-07-31T20:38:33.723Z,4.51
2023-07-31T20:41:01.746Z,4.44
2023-07-31T20:43:29.723Z,4.27
2023-07-31T20:45:57.721Z,4.03
2023-07-31T20:48:25.953Z,4.08
2023-07-31T20:50:54.306Z,4.17
2023-07-31T20:53:22.374Z,3.92
2023-07-31T20:55:50.424Z,4.04
2023-07-31T20:58:18.737Z,3.94
2023-07-31T21:00:46.880Z,4.09
2023-07-31T21:03:15.193Z,3.95
2023-07-31T21:05:50.532Z,4.01
2023-07-31T21:08:18.827Z,4.46
2023-07-31T21:10:46.979Z,4.32
2023-07-31T21:13:15.028Z,3.90
2023-07-31T21:15:43.195Z,4.33
2023-07-31T21:18:11.146Z,4.29
2023-07-31T21:20:39.722Z,3.95
2023-07-31T21:23:09.350Z,4.21
2023-07-31T21:25:37.528Z,4.29
2023-07-31T21:28:05.761Z,4.33
2023-07-31T21:30:35.576Z,4.65
2023-07-31T21:33:03.922Z,4.96
2023-07-31T21:35:32.241Z,4.50
2023-07-31T21:38:00.618Z,4.12
2023-07-31T21:40:28.816Z,4.31
2023-07-31T21:42:58.028Z,4.05
2023-07-31T21:45:26.957Z,4.22
2023-07-31T21:47:55.051Z,4.07
2023-07-31T21:50:23.346Z,5.29
2023-07-31T21:52:51.199Z,4.55
2023-07-31T21:55:21.856Z,4.55
2023-07-31T21:57:49.909Z,4.43
2023-07-31T22:00:17.963Z,4.28
2023-07-31T22:02:46.038Z,3.93
2023-07-31T22:05:14.136Z,3.96
2023-07-31T22:07:43.234Z,3.83
2023-07-31T22:10:13.769Z,4.18
2023-07-31T22:12:41.746Z,3.74
2023-07-31T22:15:10.756Z,3.91
2023-07-31T22:17:38.787Z,3.89
2023-07-31T22:20:07.532Z,4.08
2023-07-31T22:22:36.122Z,3.95
2023-07-31T22:25:04.421Z,4.15
2023-07-31T22:27:32.631Z,3.98
2023-07-31T22:30:00.768Z,4.19
2023-07-31T22:32:28.907Z,4.11
2023-07-31T22:34:57.022Z,4.04
2023-07-31T22:37:25.321Z,4.34
2023-07-31T22:39:54.209Z,4.20
2023-07-31T22:42:22.177Z,4.31
2023-07-31T22:44:50.204Z,4.12
2023-07-31T22:47:18.283Z,4.34
2023-07-31T22:49:48.462Z,4.19
2023-07-31T22:52:16.535Z,4.46
2023-07-31T22:54:44.805Z,4.38
2023-07-31T22:57:12.839Z,4.77
2023-07-31T22:59:40.734Z,4.91
2023-07-31T23:02:10.591Z,5.49
2023-07-31T23:04:38.826Z,5.92
2023-07-31T23:07:08.011Z,5.81
2023-07-31T23:09:36.090Z,5.51
2023-07-31T23:12:04.375Z,5.37
2023-07-31T23:14:32.926Z,5.39
2023-07-31T23:17:00.941Z,4.88
2023-07-31T23:19:29.167Z,4.91
2023-07-31T23:21:57.161Z,4.62
2023-07-31T23:24:25.392Z,4.11
2023-07-31T23:26:53.589Z,3.96
2023-07-31T23:29:22.633Z,3.79
2023-07-31T23:31:50.906Z,4.31
2023-07-31T23:34:18.894Z,4.57
2023-07-31T23:36:46.934Z,4.50
2023-07-31T23:39:15.006Z,4.65
2023-07-31T23:41:43.131Z,4.98
2023-07-31T23:44:11.172Z,4.37
2023-07-31T23:46:40.079Z,4.34
2023-07-31T23:49:08.259Z,4.35
2023-07-31T23:51:36.227Z,4.29
2023-07-31T23:54:04.322Z,4.51
2023-07-31T23:56:33.071Z,4.30
2023-07-31T23:59:01.139Z,4.18
